sensor_id;sensor_type;location;lat;lon;timestamp;temperature;humidity
23637;DHT22;11995;50.842;4.456;2023-05-10T00:01:24;13.90;99.90
23637;DHT22;11995;50.842;4.456;2023-05-10T00:03:52;14.00;99.90
23637;DHT22;11995;50.842;4.456;2023-05-10T00:06:19;14.10;99.90
23637;DHT22;11995;50.842;4.456;2023-05-10T00:08:47;14.10;99.90
23637;DHT22;11995;50.842;4.456;2023-05-10T00:11:14;14.00;99.90
23637;DHT22;11995;50.842;4.456;2023-05-10T00:13:42;13.80;99.90
23637;DHT22;11995;50.842;4.456;2023-05-10T00:16:09;13.70;99.90
23637;DHT22;11995;50.842;4.456;2023-05-10T00:18:39;13.60;99.90
23637;DHT22;11995;50.842;4.456;2023-05-10T00:21:06;13.60;99.90
23637;DHT22;11995;50.842;4.456;2023-05-10T00:23:34;13.70;99.90
23637;DHT22;11995;50.842;4.456;2023-05-10T00:26:01;13.70;99.90
23637;DHT22;11995;50.842;4.456;2023-05-10T00:28:29;13.80;99.90
23637;DHT22;11995;50.842;4.456;2023-05-10T00:30:57;13.90;99.90
23637;DHT22;11995;50.842;4.456;2023-05-10T00:33:24;14.00;99.90
23637;DHT22;11995;50.842;4.456;2023-05-10T00:35:52;14.00;99.90
23637;DHT22;11995;50.842;4.456;2023-05-10T00:38:19;14.10;99.90
23637;DHT22;11995;50.842;4.456;2023-05-10T00:40:50;14.00;99.90
23637;DHT22;11995;50.842;4.456;2023-05-10T00:43:18;14.10;99.90
23637;DHT22;11995;50.842;4.456;2023-05-10T00:45:45;14.10;99.90
23637;DHT22;11995;50.842;4.456;2023-05-10T00:48:13;14.10;99.90
23637;DHT22;11995;50.842;4.456;2023-05-10T00:50:41;14.20;99.90
23637;DHT22;11995;50.842;4.456;2023-05-10T00:53:09;14.10;99.90
23637;DHT22;11995;50.842;4.456;2023-05-10T00:55:37;14.10;99.90
23637;DHT22;11995;50.842;4.456;2023-05-10T00:58:05;14.10;99.90
23637;DHT22;11995;50.842;4.456;2023-05-10T01:00:33;14.10;99.90
23637;DHT22;11995;50.842;4.456;2023-05-10T01:03:01;14.10;99.90
23637;DHT22;11995;50.842;4.456;2023-05-10T01:05:29;14.10;99.90
23637;DHT22;11995;50.842;4.456;2023-05-10T01:07:58;14.10;99.90
23637;DHT22;11995;50.842;4.456;2023-05-10T01:10:25;14.20;99.90
23637;DHT22;11995;50.842;4.456;2023-05-10T01:12:53;14.10;99.90
23637;DHT22;11995;50.842;4.456;2023-05-10T01:15:21;14.10;99.90
23637;DHT22;11995;50.842;4.456;2023-05-10T01:17:49;14.10;99.90
23637;DHT22;11995;50.842;4.456;2023-05-10T01:20:17;14.10;99.90
23637;DHT22;11995;50.842;4.456;2023-05-10T01:26:07;14.10;99.90
23637;DHT22;11995;50.842;4.456;2023-05-10T01:28:45;14.10;99.90
23637;DHT22;11995;50.842;4.456;2023-05-10T01:34:09;14.10;99.90
23637;DHT22;11995;50.842;4.456;2023-05-10T01:36:43;14.00;99.90
23637;DHT22;11995;50.842;4.456;2023-05-10T01:39:38;14.00;99.90
23637;DHT22;11995;50.842;4.456;2023-05-10T01:42:07;13.90;99.90
23637;DHT22;11995;50.842;4.456;2023-05-10T01:47:38;14.00;99.90
23637;DHT22;11995;50.842;4.456;2023-05-10T01:50:04;14.00;99.90
23637;DHT22;11995;50.842;4.456;2023-05-10T01:52:36;14.00;99.90
23637;DHT22;11995;50.842;4.456;2023-05-10T01:55:06;14.10;99.90
23637;DHT22;11995;50.842;4.456;2023-05-10T01:57:37;14.10;99.90
23637;DHT22;11995;50.842;4.456;2023-05-10T02:00:07;14.00;99.90
23637;DHT22;11995;50.842;4.456;2023-05-10T02:02:37;14.10;99.90
23637;DHT22;11995;50.842;4.456;2023-05-10T02:05:08;14.10;99.90
23637;DHT22;11995;50.842;4.456;2023-05-10T02:07:37;14.10;99.90
23637;DHT22;11995;50.842;4.456;2023-05-10T02:10:05;14.10;99.90
23637;DHT22;11995;50.842;4.456;2023-05-10T02:12:42;14.00;99.90
23637;DHT22;11995;50.842;4.456;2023-05-10T02:15:08;14.00;99.90
23637;DHT22;11995;50.842;4.456;2023-05-10T02:17:37;13.90;99.90
23637;DHT22;11995;50.842;4.456;2023-05-10T02:20:06;13.80;99.90
23637;DHT22;11995;50.842;4.456;2023-05-10T02:22:36;13.70;99.90
23637;DHT22;11995;50.842;4.456;2023-05-10T02:25:05;13.60;99.90
23637;DHT22;11995;50.842;4.456;2023-05-10T02:27:35;13.70;99.90
23637;DHT22;11995;50.842;4.456;2023-05-10T02:30:05;13.70;99.90
23637;DHT22;11995;50.842;4.456;2023-05-10T02:32:34;13.70;99.90
23637;DHT22;11995;50.842;4.456;2023-05-10T02:35:02;13.60;99.90
23637;DHT22;11995;50.842;4.456;2023-05-10T02:37:31;13.70;99.90
23637;DHT22;11995;50.842;4.456;2023-05-10T02:39:59;13.60;99.90
23637;DHT22;11995;50.842;4.456;2023-05-10T02:42:28;13.60;99.90
23637;DHT22;11995;50.842;4.456;2023-05-10T02:45:11;13.60;99.90
23637;DHT22;11995;50.842;4.456;2023-05-10T02:47:38;13.60;99.90
23637;DHT22;11995;50.842;4.456;2023-05-10T02:50:07;13.60;99.90
23637;DHT22;11995;50.842;4.456;2023-05-10T02:52:39;13.50;99.90
23637;DHT22;11995;50.842;4.456;2023-05-10T02:55:09;13.50;99.90
23637;DHT22;11995;50.842;4.456;2023-05-10T02:57:48;13.40;99.90
23637;DHT22;11995;50.842;4.456;2023-05-10T03:00:12;13.30;99.90
23637;DHT22;11995;50.842;4.456;2023-05-10T03:02:40;13.30;99.90
23637;DHT22;11995;50.842;4.456;2023-05-10T03:05:08;13.40;99.90
23637;DHT22;11995;50.842;4.456;2023-05-10T03:07:35;13.60;99.90
23637;DHT22;11995;50.842;4.456;2023-05-10T03:10:04;13.60;99.90
23637;DHT22;11995;50.842;4.456;2023-05-10T03:18:16;13.40;99.90
23637;DHT22;11995;50.842;4.456;2023-05-10T03:20:48;13.30;99.90
23637;DHT22;11995;50.842;4.456;2023-05-10T03:23:30;13.20;99.90
23637;DHT22;11995;50.842;4.456;2023-05-10T03:25:56;13.30;99.90
23637;DHT22;11995;50.842;4.456;2023-05-10T03:28:26;13.20;99.90
23637;DHT22;11995;50.842;4.456;2023-05-10T03:30:53;13.20;99.90
23637;DHT22;11995;50.842;4.456;2023-05-10T03:33:21;13.20;99.90
23637;DHT22;11995;50.842;4.456;2023-05-10T03:35:49;13.00;99.90
23637;DHT22;11995;50.842;4.456;2023-05-10T03:38:19;12.90;99.90
23637;DHT22;11995;50.842;4.456;2023-05-10T03:40:47;12.80;99.90
23637;DHT22;11995;50.842;4.456;2023-05-10T03:43:14;12.80;99.90
23637;DHT22;11995;50.842;4.456;2023-05-10T03:45:42;12.80;99.90
23637;DHT22;11995;50.842;4.456;2023-05-10T03:48:09;12.80;99.90
23637;DHT22;11995;50.842;4.456;2023-05-10T03:50:37;12.80;99.90
23637;DHT22;11995;50.842;4.456;2023-05-10T03:53:05;12.80;99.90
23637;DHT22;11995;50.842;4.456;2023-05-10T03:55:32;12.90;99.90
23637;DHT22;11995;50.842;4.456;2023-05-10T03:58:01;12.80;99.90
23637;DHT22;11995;50.842;4.456;2023-05-10T04:00:29;12.90;99.90
23637;DHT22;11995;50.842;4.456;2023-05-10T04:02:57;12.90;99.90
23637;DHT22;11995;50.842;4.456;2023-05-10T04:05:24;13.00;99.90
23637;DHT22;11995;50.842;4.456;2023-05-10T04:07:52;12.90;99.90
23637;DHT22;11995;50.842;4.456;2023-05-10T04:10:19;12.90;99.90
23637;DHT22;11995;50.842;4.456;2023-05-10T04:12:47;12.90;99.90
23637;DHT22;11995;50.842;4.456;2023-05-10T04:15:15;12.90;99.90
23637;DHT22;11995;50.842;4.456;2023-05-10T04:17:42;12.90;99.90
23637;DHT22;11995;50.842;4.456;2023-05-10T04:20:11;12.90;99.90
23637;DHT22;11995;50.842;4.456;2023-05-10T04:22:38;12.90;99.90
23637;DHT22;11995;50.842;4.456;2023-05-10T04:25:07;12.80;99.90
23637;DHT22;11995;50.842;4.456;2023-05-10T04:27:34;12.80;99.90
23637;DHT22;11995;50.842;4.456;2023-05-10T04:30:02;12.80;99.90
23637;DHT22;11995;50.842;4.456;2023-05-10T04:32:30;12.70;99.90
23637;DHT22;11995;50.842;4.456;2023-05-10T04:34:57;12.80;99.90
23637;DHT22;11995;50.842;4.456;2023-05-10T04:37:25;12.80;99.90
23637;DHT22;11995;50.842;4.456;2023-05-10T04:39:52;12.90;99.90
23637;DHT22;11995;50.842;4.456;2023-05-10T04:42:20;13.00;99.90
23637;DHT22;11995;50.842;4.456;2023-05-10T04:44:47;13.00;99.90
23637;DHT22;11995;50.842;4.456;2023-05-10T04:47:15;13.00;99.90
23637;DHT22;11995;50.842;4.456;2023-05-10T04:49:42;13.00;99.90
23637;DHT22;11995;50.842;4.456;2023-05-10T04:52:10;13.00;99.90
23637;DHT22;11995;50.842;4.456;2023-05-10T04:54:38;13.10;99.90
23637;DHT22;11995;50.842;4.456;2023-05-10T04:57:05;13.10;99.90
23637;DHT22;11995;50.842;4.456;2023-05-10T04:59:32;13.20;99.90
23637;DHT22;11995;50.842;4.456;2023-05-10T05:02:02;13.30;99.90
23637;DHT22;11995;50.842;4.456;2023-05-10T05:04:30;13.20;99.90
23637;DHT22;11995;50.842;4.456;2023-05-10T05:06:58;13.30;99.90
23637;DHT22;11995;50.842;4.456;2023-05-10T05:09:25;13.30;99.90
23637;DHT22;11995;50.842;4.456;2023-05-10T05:11:53;13.30;99.90
23637;DHT22;11995;50.842;4.456;2023-05-10T05:14:20;13.30;99.90
23637;DHT22;11995;50.842;4.456;2023-05-10T05:16:48;13.40;99.90
23637;DHT22;11995;50.842;4.456;2023-05-10T05:19:15;13.40;99.90
23637;DHT22;11995;50.842;4.456;2023-05-10T05:21:43;13.50;99.90
23637;DHT22;11995;50.842;4.456;2023-05-10T05:24:11;13.40;99.90
23637;DHT22;11995;50.842;4.456;2023-05-10T05:26:39;13.30;99.90
23637;DHT22;11995;50.842;4.456;2023-05-10T05:29:06;13.30;99.90
23637;DHT22;11995;50.842;4.456;2023-05-10T05:31:34;13.20;99.90
23637;DHT22;11995;50.842;4.456;2023-05-10T05:34:01;13.30;99.90
23637;DHT22;11995;50.842;4.456;2023-05-10T05:36:30;13.30;99.90
23637;DHT22;11995;50.842;4.456;2023-05-10T05:38:57;13.30;99.90
23637;DHT22;11995;50.842;4.456;2023-05-10T05:41:24;13.40;99.90
23637;DHT22;11995;50.842;4.456;2023-05-10T05:43:52;13.50;99.90
23637;DHT22;11995;50.842;4.456;2023-05-10T05:46:20;13.50;99.90
23637;DHT22;11995;50.842;4.456;2023-05-10T05:48:47;13.30;99.90
23637;DHT22;11995;50.842;4.456;2023-05-10T05:51:15;13.20;99.90
23637;DHT22;11995;50.842;4.456;2023-05-10T05:53:42;13.10;99.90
23637;DHT22;11995;50.842;4.456;2023-05-10T05:56:10;13.10;99.90
23637;DHT22;11995;50.842;4.456;2023-05-10T05:58:37;13.10;99.90
23637;DHT22;11995;50.842;4.456;2023-05-10T06:01:05;13.20;99.90
23637;DHT22;11995;50.842;4.456;2023-05-10T06:03:38;13.20;99.90
23637;DHT22;11995;50.842;4.456;2023-05-10T06:06:06;13.20;99.90
23637;DHT22;11995;50.842;4.456;2023-05-10T06:08:33;13.30;99.90
23637;DHT22;11995;50.842;4.456;2023-05-10T06:11:01;13.20;99.90
23637;DHT22;11995;50.842;4.456;2023-05-10T06:13:30;13.30;99.90
23637;DHT22;11995;50.842;4.456;2023-05-10T06:16:01;13.40;99.90
23637;DHT22;11995;50.842;4.456;2023-05-10T06:18:29;13.30;99.90
23637;DHT22;11995;50.842;4.456;2023-05-10T06:20:56;13.40;99.90
23637;DHT22;11995;50.842;4.456;2023-05-10T06:23:24;13.50;99.90
23637;DHT22;11995;50.842;4.456;2023-05-10T06:25:52;13.40;99.90
23637;DHT22;11995;50.842;4.456;2023-05-10T06:28:19;13.60;99.90
23637;DHT22;11995;50.842;4.456;2023-05-10T06:30:47;13.50;99.90
23637;DHT22;11995;50.842;4.456;2023-05-10T06:33:15;13.50;99.90
23637;DHT22;11995;50.842;4.456;2023-05-10T06:35:43;13.60;99.90
23637;DHT22;11995;50.842;4.456;2023-05-10T06:38:10;13.70;99.90
23637;DHT22;11995;50.842;4.456;2023-05-10T06:40:42;13.70;99.90
23637;DHT22;11995;50.842;4.456;2023-05-10T06:43:10;13.60;99.90
23637;DHT22;11995;50.842;4.456;2023-05-10T06:45:37;13.60;99.90
23637;DHT22;11995;50.842;4.456;2023-05-10T06:48:05;13.60;99.90
23637;DHT22;11995;50.842;4.456;2023-05-10T06:50:33;13.70;99.90
23637;DHT22;11995;50.842;4.456;2023-05-10T06:53:00;13.70;99.90
23637;DHT22;11995;50.842;4.456;2023-05-10T06:55:31;13.70;99.90
23637;DHT22;11995;50.842;4.456;2023-05-10T06:57:58;13.70;99.90
23637;DHT22;11995;50.842;4.456;2023-05-10T07:00:26;13.60;99.90
23637;DHT22;11995;50.842;4.456;2023-05-10T07:02:53;13.70;99.90
23637;DHT22;11995;50.842;4.456;2023-05-10T07:05:21;13.70;99.90
23637;DHT22;11995;50.842;4.456;2023-05-10T07:07:49;13.50;99.90
23637;DHT22;11995;50.842;4.456;2023-05-10T07:10:16;13.40;99.90
23637;DHT22;11995;50.842;4.456;2023-05-10T07:12:44;13.40;99.90
23637;DHT22;11995;50.842;4.456;2023-05-10T07:15:11;13.40;99.90
23637;DHT22;11995;50.842;4.456;2023-05-10T07:17:39;13.50;99.90
23637;DHT22;11995;50.842;4.456;2023-05-10T07:20:07;13.50;99.90
23637;DHT22;11995;50.842;4.456;2023-05-10T07:22:35;13.30;99.90
23637;DHT22;11995;50.842;4.456;2023-05-10T07:25:03;13.40;99.90
23637;DHT22;11995;50.842;4.456;2023-05-10T07:27:31;13.30;99.90
23637;DHT22;11995;50.842;4.456;2023-05-10T07:29:59;13.30;99.90
23637;DHT22;11995;50.842;4.456;2023-05-10T07:32:26;13.20;99.90
23637;DHT22;11995;50.842;4.456;2023-05-10T07:34:54;13.00;99.90
23637;DHT22;11995;50.842;4.456;2023-05-10T07:37:22;13.00;99.90
23637;DHT22;11995;50.842;4.456;2023-05-10T07:39:49;12.90;99.90
23637;DHT22;11995;50.842;4.456;2023-05-10T07:42:17;13.00;99.90
23637;DHT22;11995;50.842;4.456;2023-05-10T07:44:44;13.00;99.90
23637;DHT22;11995;50.842;4.456;2023-05-10T07:47:12;12.90;99.90
23637;DHT22;11995;50.842;4.456;2023-05-10T07:49:39;12.90;99.90
23637;DHT22;11995;50.842;4.456;2023-05-10T07:52:07;12.90;99.90
23637;DHT22;11995;50.842;4.456;2023-05-10T07:54:34;13.00;99.90
23637;DHT22;11995;50.842;4.456;2023-05-10T07:57:02;13.00;99.90
23637;DHT22;11995;50.842;4.456;2023-05-10T07:59:29;13.10;99.90
23637;DHT22;11995;50.842;4.456;2023-05-10T08:01:57;13.00;99.90
23637;DHT22;11995;50.842;4.456;2023-05-10T08:04:24;13.10;99.90
23637;DHT22;11995;50.842;4.456;2023-05-10T08:06:52;13.20;99.90
23637;DHT22;11995;50.842;4.456;2023-05-10T08:09:20;13.10;99.90
23637;DHT22;11995;50.842;4.456;2023-05-10T08:11:49;13.10;99.90
23637;DHT22;11995;50.842;4.456;2023-05-10T08:14:17;13.10;99.90
23637;DHT22;11995;50.842;4.456;2023-05-10T08:16:45;13.30;99.90
23637;DHT22;11995;50.842;4.456;2023-05-10T08:19:12;13.30;99.90
23637;DHT22;11995;50.842;4.456;2023-05-10T08:21:40;13.30;99.90
23637;DHT22;11995;50.842;4.456;2023-05-10T08:24:08;13.30;99.90
23637;DHT22;11995;50.842;4.456;2023-05-10T08:26:36;13.10;99.90
23637;DHT22;11995;50.842;4.456;2023-05-10T08:29:04;13.20;99.90
23637;DHT22;11995;50.842;4.456;2023-05-10T08:31:31;13.20;99.90
23637;DHT22;11995;50.842;4.456;2023-05-10T08:33:59;13.30;99.90
23637;DHT22;11995;50.842;4.456;2023-05-10T08:36:26;13.50;99.90
23637;DHT22;11995;50.842;4.456;2023-05-10T08:38:54;13.60;99.90
23637;DHT22;11995;50.842;4.456;2023-05-10T08:41:23;13.60;99.90
23637;DHT22;11995;50.842;4.456;2023-05-10T08:43:55;13.70;99.90
23637;DHT22;11995;50.842;4.456;2023-05-10T08:46:23;13.70;99.90
23637;DHT22;11995;50.842;4.456;2023-05-10T08:48:51;13.80;99.90
23637;DHT22;11995;50.842;4.456;2023-05-10T08:51:24;13.80;99.90
23637;DHT22;11995;50.842;4.456;2023-05-10T08:53:55;13.90;99.90
23637;DHT22;11995;50.842;4.456;2023-05-10T08:56:23;13.90;99.90
23637;DHT22;11995;50.842;4.456;2023-05-10T08:58:51;13.90;99.90
23637;DHT22;11995;50.842;4.456;2023-05-10T09:01:19;13.90;99.90
23637;DHT22;11995;50.842;4.456;2023-05-10T09:03:47;13.80;99.90
23637;DHT22;11995;50.842;4.456;2023-05-10T09:06:15;13.80;99.90
23637;DHT22;11995;50.842;4.456;2023-05-10T09:08:43;13.80;99.90
23637;DHT22;11995;50.842;4.456;2023-05-10T09:11:13;13.90;99.90
23637;DHT22;11995;50.842;4.456;2023-05-10T09:13:40;14.00;99.90
23637;DHT22;11995;50.842;4.456;2023-05-10T09:16:09;14.00;99.90
23637;DHT22;11995;50.842;4.456;2023-05-10T09:18:36;14.00;99.90
23637;DHT22;11995;50.842;4.456;2023-05-10T09:21:04;14.10;99.90
23637;DHT22;11995;50.842;4.456;2023-05-10T09:23:31;14.10;99.90
23637;DHT22;11995;50.842;4.456;2023-05-10T09:26:03;14.00;99.90
23637;DHT22;11995;50.842;4.456;2023-05-10T09:28:49;14.00;99.90
23637;DHT22;11995;50.842;4.456;2023-05-10T09:31:04;14.10;99.90
23637;DHT22;11995;50.842;4.456;2023-05-10T09:33:43;14.00;99.90
23637;DHT22;11995;50.842;4.456;2023-05-10T09:36:08;14.00;99.90
23637;DHT22;11995;50.842;4.456;2023-05-10T09:38:50;13.80;99.90
23637;DHT22;11995;50.842;4.456;2023-05-10T09:41:21;13.80;99.90
23637;DHT22;11995;50.842;4.456;2023-05-10T09:43:49;13.80;99.90
23637;DHT22;11995;50.842;4.456;2023-05-10T09:46:17;13.80;99.90
23637;DHT22;11995;50.842;4.456;2023-05-10T09:48:48;13.60;99.90
23637;DHT22;11995;50.842;4.456;2023-05-10T09:51:20;13.60;99.90
23637;DHT22;11995;50.842;4.456;2023-05-10T09:53:48;13.60;99.90
23637;DHT22;11995;50.842;4.456;2023-05-10T09:56:35;13.50;99.90
23637;DHT22;11995;50.842;4.456;2023-05-10T09:59:04;13.70;99.90
23637;DHT22;11995;50.842;4.456;2023-05-10T10:01:31;13.80;99.90
23637;DHT22;11995;50.842;4.456;2023-05-10T10:03:59;13.90;99.90
23637;DHT22;11995;50.842;4.456;2023-05-10T10:06:28;14.00;99.90
23637;DHT22;11995;50.842;4.456;2023-05-10T10:08:56;14.00;99.90
23637;DHT22;11995;50.842;4.456;2023-05-10T10:11:24;13.80;99.90
23637;DHT22;11995;50.842;4.456;2023-05-10T10:13:51;13.90;99.90
23637;DHT22;11995;50.842;4.456;2023-05-10T10:16:21;13.90;99.90
23637;DHT22;11995;50.842;4.456;2023-05-10T10:18:48;13.90;99.90
23637;DHT22;11995;50.842;4.456;2023-05-10T10:21:17;13.90;99.90
23637;DHT22;11995;50.842;4.456;2023-05-10T10:23:45;13.90;99.90
23637;DHT22;11995;50.842;4.456;2023-05-10T10:26:13;13.90;99.90
23637;DHT22;11995;50.842;4.456;2023-05-10T10:29:07;13.90;99.90
23637;DHT22;11995;50.842;4.456;2023-05-10T10:31:46;14.00;99.90
23637;DHT22;11995;50.842;4.456;2023-05-10T10:34:29;14.00;99.90
23637;DHT22;11995;50.842;4.456;2023-05-10T10:36:57;14.00;99.90
23637;DHT22;11995;50.842;4.456;2023-05-10T10:39:25;13.90;99.90
23637;DHT22;11995;50.842;4.456;2023-05-10T10:41:55;14.00;99.90
23637;DHT22;11995;50.842;4.456;2023-05-10T10:44:25;14.20;99.90
23637;DHT22;11995;50.842;4.456;2023-05-10T10:52:26;14.20;99.90
23637;DHT22;11995;50.842;4.456;2023-05-10T10:55:04;14.30;99.90
23637;DHT22;11995;50.842;4.456;2023-05-10T10:57:49;14.10;99.90
23637;DHT22;11995;50.842;4.456;2023-05-10T11:00:20;14.10;99.90
23637;DHT22;11995;50.842;4.456;2023-05-10T11:03:06;14.30;99.90
23637;DHT22;11995;50.842;4.456;2023-05-10T11:05:42;14.40;99.90
23637;DHT22;11995;50.842;4.456;2023-05-10T11:13:41;14.40;99.90
23637;DHT22;11995;50.842;4.456;2023-05-10T11:21:25;14.60;99.90
23637;DHT22;11995;50.842;4.456;2023-05-10T11:23:55;14.70;99.90
23637;DHT22;11995;50.842;4.456;2023-05-10T11:26:25;14.90;99.90
23637;DHT22;11995;50.842;4.456;2023-05-10T11:28:54;15.10;99.90
23637;DHT22;11995;50.842;4.456;2023-05-10T11:31:23;15.20;99.90
23637;DHT22;11995;50.842;4.456;2023-05-10T11:33:54;15.10;99.90
23637;DHT22;11995;50.842;4.456;2023-05-10T11:36:28;15.40;99.90
23637;DHT22;11995;50.842;4.456;2023-05-10T11:38:57;15.40;99.90
23637;DHT22;11995;50.842;4.456;2023-05-10T11:41:26;15.50;99.90
23637;DHT22;11995;50.842;4.456;2023-05-10T11:43:54;15.50;99.90
23637;DHT22;11995;50.842;4.456;2023-05-10T11:46:28;15.70;99.90
23637;DHT22;11995;50.842;4.456;2023-05-10T11:49:00;15.80;99.90
23637;DHT22;11995;50.842;4.456;2023-05-10T11:51:32;15.90;99.90
23637;DHT22;11995;50.842;4.456;2023-05-10T11:54:04;15.80;99.90
23637;DHT22;11995;50.842;4.456;2023-05-10T11:56:29;15.90;99.90
23637;DHT22;11995;50.842;4.456;2023-05-10T11:58:59;15.90;99.90
23637;DHT22;11995;50.842;4.456;2023-05-10T12:01:29;16.00;99.90
23637;DHT22;11995;50.842;4.456;2023-05-10T12:03:57;16.00;99.90
23637;DHT22;11995;50.842;4.456;2023-05-10T12:06:34;16.00;99.90
23637;DHT22;11995;50.842;4.456;2023-05-10T12:08:58;16.10;99.90
23637;DHT22;11995;50.842;4.456;2023-05-10T12:11:27;16.20;99.90
23637;DHT22;11995;50.842;4.456;2023-05-10T12:14:03;16.10;99.90
23637;DHT22;11995;50.842;4.456;2023-05-10T12:16:30;16.30;99.90
23637;DHT22;11995;50.842;4.456;2023-05-10T12:19:00;16.50;99.90
23637;DHT22;11995;50.842;4.456;2023-05-10T12:21:30;16.70;99.90
23637;DHT22;11995;50.842;4.456;2023-05-10T12:24:02;16.80;99.90
23637;DHT22;11995;50.842;4.456;2023-05-10T12:26:32;16.80;99.90
23637;DHT22;11995;50.842;4.456;2023-05-10T12:29:15;16.90;99.90
23637;DHT22;11995;50.842;4.456;2023-05-10T12:31:57;17.10;99.90
23637;DHT22;11995;50.842;4.456;2023-05-10T12:36:55;17.10;99.90
23637;DHT22;11995;50.842;4.456;2023-05-10T12:39:23;17.10;99.90
23637;DHT22;11995;50.842;4.456;2023-05-10T12:41:51;17.10;99.90
23637;DHT22;11995;50.842;4.456;2023-05-10T12:44:19;16.90;99.90
23637;DHT22;11995;50.842;4.456;2023-05-10T12:46:48;17.10;99.90
23637;DHT22;11995;50.842;4.456;2023-05-10T12:49:16;17.00;99.90
23637;DHT22;11995;50.842;4.456;2023-05-10T12:51:46;17.00;99.90
23637;DHT22;11995;50.842;4.456;2023-05-10T12:54:13;16.90;99.90
23637;DHT22;11995;50.842;4.456;2023-05-10T12:56:41;17.00;99.90
23637;DHT22;11995;50.842;4.456;2023-05-10T12:59:13;17.00;99.90
23637;DHT22;11995;50.842;4.456;2023-05-10T13:01:40;16.90;99.90
23637;DHT22;11995;50.842;4.456;2023-05-10T13:04:08;16.70;99.90
23637;DHT22;11995;50.842;4.456;2023-05-10T13:06:36;16.80;99.90
23637;DHT22;11995;50.842;4.456;2023-05-10T13:09:04;16.80;99.90
23637;DHT22;11995;50.842;4.456;2023-05-10T13:11:31;16.70;99.90
23637;DHT22;11995;50.842;4.456;2023-05-10T13:13:59;16.80;99.90
23637;DHT22;11995;50.842;4.456;2023-05-10T13:16:27;16.90;99.90
23637;DHT22;11995;50.842;4.456;2023-05-10T13:18:54;17.00;99.90
23637;DHT22;11995;50.842;4.456;2023-05-10T13:21:22;17.00;99.90
23637;DHT22;11995;50.842;4.456;2023-05-10T13:23:50;17.10;99.90
23637;DHT22;11995;50.842;4.456;2023-05-10T13:26:18;17.00;99.90
23637;DHT22;11995;50.842;4.456;2023-05-10T13:28:46;17.00;99.90
23637;DHT22;11995;50.842;4.456;2023-05-10T13:31:15;17.20;99.90
23637;DHT22;11995;50.842;4.456;2023-05-10T13:33:42;17.20;99.90
23637;DHT22;11995;50.842;4.456;2023-05-10T13:36:10;17.10;99.90
23637;DHT22;11995;50.842;4.456;2023-05-10T13:38:37;17.10;99.90
23637;DHT22;11995;50.842;4.456;2023-05-10T13:41:05;17.20;99.90
23637;DHT22;11995;50.842;4.456;2023-05-10T13:43:32;17.20;99.90
23637;DHT22;11995;50.842;4.456;2023-05-10T13:46:00;17.00;99.90
23637;DHT22;11995;50.842;4.456;2023-05-10T13:48:27;16.90;99.90
23637;DHT22;11995;50.842;4.456;2023-05-10T13:50:55;16.90;99.90
23637;DHT22;11995;50.842;4.456;2023-05-10T13:53:23;16.90;99.90
23637;DHT22;11995;50.842;4.456;2023-05-10T13:55:50;17.00;99.90
23637;DHT22;11995;50.842;4.456;2023-05-10T13:58:18;16.80;99.90
23637;DHT22;11995;50.842;4.456;2023-05-10T14:00:45;16.50;99.90
23637;DHT22;11995;50.842;4.456;2023-05-10T14:03:13;16.50;99.90
23637;DHT22;11995;50.842;4.456;2023-05-10T14:05:46;16.60;99.90
23637;DHT22;11995;50.842;4.456;2023-05-10T14:08:13;16.90;99.90
23637;DHT22;11995;50.842;4.456;2023-05-10T14:10:41;17.10;99.90
23637;DHT22;11995;50.842;4.456;2023-05-10T14:13:08;17.30;99.90
23637;DHT22;11995;50.842;4.456;2023-05-10T14:15:36;17.40;99.90
23637;DHT22;11995;50.842;4.456;2023-05-10T14:18:04;17.30;99.90
23637;DHT22;11995;50.842;4.456;2023-05-10T14:20:31;17.30;99.90
23637;DHT22;11995;50.842;4.456;2023-05-10T14:23:00;17.30;99.90
23637;DHT22;11995;50.842;4.456;2023-05-10T14:25:28;17.20;99.90
23637;DHT22;11995;50.842;4.456;2023-05-10T14:27:55;17.10;99.90
23637;DHT22;11995;50.842;4.456;2023-05-10T14:30:23;17.10;99.90
23637;DHT22;11995;50.842;4.456;2023-05-10T14:32:50;17.10;99.90
23637;DHT22;11995;50.842;4.456;2023-05-10T14:35:20;17.10;99.90
23637;DHT22;11995;50.842;4.456;2023-05-10T14:37:47;17.10;99.90
23637;DHT22;11995;50.842;4.456;2023-05-10T14:40:15;17.10;99.90
23637;DHT22;11995;50.842;4.456;2023-05-10T14:42:43;17.10;99.90
23637;DHT22;11995;50.842;4.456;2023-05-10T14:45:11;16.90;99.90
23637;DHT22;11995;50.842;4.456;2023-05-10T14:47:38;16.90;99.90
23637;DHT22;11995;50.842;4.456;2023-05-10T14:50:06;16.90;99.90
23637;DHT22;11995;50.842;4.456;2023-05-10T14:52:34;16.80;99.90
23637;DHT22;11995;50.842;4.456;2023-05-10T14:55:03;16.70;99.90
23637;DHT22;11995;50.842;4.456;2023-05-10T14:57:30;16.60;99.90
23637;DHT22;11995;50.842;4.456;2023-05-10T14:59:58;16.60;99.90
23637;DHT22;11995;50.842;4.456;2023-05-10T15:02:27;16.40;99.90
23637;DHT22;11995;50.842;4.456;2023-05-10T15:04:54;16.30;99.90
23637;DHT22;11995;50.842;4.456;2023-05-10T15:07:22;16.10;99.90
23637;DHT22;11995;50.842;4.456;2023-05-10T15:09:50;15.90;99.90
23637;DHT22;11995;50.842;4.456;2023-05-10T15:12:18;15.70;99.90
23637;DHT22;11995;50.842;4.456;2023-05-10T15:14:46;15.50;99.90
23637;DHT22;11995;50.842;4.456;2023-05-10T15:17:14;15.40;99.90
23637;DHT22;11995;50.842;4.456;2023-05-10T15:19:42;15.20;99.90
23637;DHT22;11995;50.842;4.456;2023-05-10T15:22:10;15.10;99.90
23637;DHT22;11995;50.842;4.456;2023-05-10T15:24:38;15.10;99.90
23637;DHT22;11995;50.842;4.456;2023-05-10T15:27:05;15.20;99.90
23637;DHT22;11995;50.842;4.456;2023-05-10T15:29:33;15.10;99.90
23637;DHT22;11995;50.842;4.456;2023-05-10T15:32:01;15.00;99.90
23637;DHT22;11995;50.842;4.456;2023-05-10T15:34:29;15.10;99.90
23637;DHT22;11995;50.842;4.456;2023-05-10T15:36:57;15.00;99.90
23637;DHT22;11995;50.842;4.456;2023-05-10T15:39:25;14.80;99.90
23637;DHT22;11995;50.842;4.456;2023-05-10T15:41:52;14.90;99.90
23637;DHT22;11995;50.842;4.456;2023-05-10T15:44:20;15.10;99.90
23637;DHT22;11995;50.842;4.456;2023-05-10T15:46:48;15.10;99.90
23637;DHT22;11995;50.842;4.456;2023-05-10T15:49:15;15.10;99.90
23637;DHT22;11995;50.842;4.456;2023-05-10T15:51:43;15.30;99.90
23637;DHT22;11995;50.842;4.456;2023-05-10T15:54:11;15.40;99.90
23637;DHT22;11995;50.842;4.456;2023-05-10T15:56:38;15.40;99.90
23637;DHT22;11995;50.842;4.456;2023-05-10T15:59:06;15.40;99.90
23637;DHT22;11995;50.842;4.456;2023-05-10T16:01:36;15.40;99.90
23637;DHT22;11995;50.842;4.456;2023-05-10T16:04:03;15.50;99.90
23637;DHT22;11995;50.842;4.456;2023-05-10T16:06:32;15.40;99.90
23637;DHT22;11995;50.842;4.456;2023-05-10T16:09:00;15.60;99.90
23637;DHT22;11995;50.842;4.456;2023-05-10T16:11:27;15.70;99.90
23637;DHT22;11995;50.842;4.456;2023-05-10T16:13:55;15.70;99.90